TimeEST,TemperatureF,Dew PointF,Humidity,Sea Level PressureIn,VisibilityMPH,Wind Direction,Wind SpeedMPH,Gust SpeedMPH,PrecipitationIn,Events,Conditions,WindDirDegrees,DateUTC
12:53 AM,71.1,59.0,66,30.17,10.0,SE,8.1,-,N/A,,Partly Cloudy,130,2014-02-18 05:53:00
1:53 AM,71.1,59.0,66,30.17,10.0,SE,6.9,-,N/A,,Partly Cloudy,130,2014-02-18 06:53:00
2:53 AM,68.0,59.0,73,30.17,10.0,East,3.5,-,N/A,,Partly Cloudy,90,2014-02-18 07:53:00
3:53 AM,66.9,60.1,79,30.17,10.0,Calm,Calm,-,N/A,,Partly Cloudy,0,2014-02-18 08:53:00
4:53 AM,68.0,60.1,76,30.16,10.0,SE,3.5,-,N/A,,Partly Cloudy,140,2014-02-18 09:53:00
5:53 AM,68.0,60.1,76,30.17,10.0,SE,3.5,-,N/A,,Partly Cloudy,130,2014-02-18 10:53:00
6:53 AM,69.1,61.0,75,30.18,10.0,SE,5.8,-,N/A,,Scattered Clouds,140,2014-02-18 11:53:00
7:53 AM,72.0,62.1,71,30.20,10.0,East,5.8,-,N/A,,Partly Cloudy,100,2014-02-18 12:53:00
8:53 AM,75.0,60.1,60,30.22,10.0,East,8.1,-,N/A,,Clear,100,2014-02-18 13:53:00
9:53 AM,77.0,61.0,58,30.23,10.0,ESE,11.5,-,N/A,,Partly Cloudy,120,2014-02-18 14:53:00
10:53 AM,78.1,62.1,58,30.23,10.0,East,10.4,-,N/A,,Scattered Clouds,90,2014-02-18 15:53:00
11:53 AM,79.0,61.0,54,30.23,10.0,East,6.9,-,N/A,,Scattered Clouds,90,2014-02-18 16:53:00
12:53 PM,79.0,60.1,52,30.21,10.0,East,5.8,-,N/A,,Partly Cloudy,80,2014-02-18 17:53:00
1:53 PM,78.1,59.0,52,30.19,10.0,East,8.1,17.3,N/A,,Partly Cloudy,100,2014-02-18 18:53:00
2:53 PM,80.1,60.1,50,30.17,10.0,ENE,10.4,-,N/A,,Partly Cloudy,70,2014-02-18 19:53:00
3:53 PM,78.1,59.0,52,30.17,10.0,East,10.4,-,N/A,,Partly Cloudy,80,2014-02-18 20:53:00
4:53 PM,77.0,59.0,54,30.15,10.0,ENE,11.5,-,N/A,,Partly Cloudy,70,2014-02-18 21:53:00
5:53 PM,75.0,57.9,55,30.16,10.0,East,10.4,-,N/A,,Partly Cloudy,90,2014-02-18 22:53:00
6:53 PM,73.9,57.9,57,30.17,10.0,East,9.2,-,N/A,,Clear,90,2014-02-18 23:53:00
7:53 PM,73.0,59.0,61,30.17,10.0,East,10.4,-,N/A,,Partly Cloudy,90,2014-02-19 00:53:00
8:53 PM,73.0,61.0,66,30.19,10.0,East,11.5,-,N/A,,Partly Cloudy,90,2014-02-19 01:53:00
9:53 PM,73.9,61.0,64,30.19,10.0,East,11.5,-,N/A,,Partly Cloudy,100,2014-02-19 02:53:00
10:53 PM,73.0,61.0,66,30.19,10.0,East,10.4,-,N/A,,Scattered Clouds,100,2014-02-19 03:53:00
11:53 PM,73.0,60.1,64,30.17,10.0,ESE,11.5,-,N/A,,Scattered Clouds,110,2014-02-19 04:53:00